sensor_id;sensor_type;location;lat;lon;timestamp;temperature;humidity
4701;DHT22;8724;51.272;6.554;2023-05-07T00:00:28;18.10;99.90
4701;DHT22;8724;51.272;6.554;2023-05-07T00:02:57;18.10;99.90
4701;DHT22;8724;51.272;6.554;2023-05-07T00:05:25;18.10;99.90
4701;DHT22;8724;51.272;6.554;2023-05-07T00:07:54;18.10;99.90
4701;DHT22;8724;51.272;6.554;2023-05-07T00:10:25;18.10;99.90
4701;DHT22;8724;51.272;6.554;2023-05-07T00:12:55;18.10;99.90
4701;DHT22;8724;51.272;6.554;2023-05-07T00:15:24;18.10;99.90
4701;DHT22;8724;51.272;6.554;2023-05-07T00:17:53;18.00;99.90
4701;DHT22;8724;51.272;6.554;2023-05-07T00:20:21;18.00;99.90
4701;DHT22;8724;51.272;6.554;2023-05-07T00:22:49;18.00;99.90
4701;DHT22;8724;51.272;6.554;2023-05-07T00:25:18;18.00;99.90
4701;DHT22;8724;51.272;6.554;2023-05-07T00:27:47;18.00;99.90
4701;DHT22;8724;51.272;6.554;2023-05-07T00:30:17;18.00;99.90
4701;DHT22;8724;51.272;6.554;2023-05-07T00:32:45;18.00;99.90
4701;DHT22;8724;51.272;6.554;2023-05-07T00:35:16;18.00;99.90
4701;DHT22;8724;51.272;6.554;2023-05-07T00:37:44;18.00;99.90
4701;DHT22;8724;51.272;6.554;2023-05-07T00:40:12;17.90;99.90
4701;DHT22;8724;51.272;6.554;2023-05-07T00:42:41;17.90;99.90
4701;DHT22;8724;51.272;6.554;2023-05-07T00:45:15;18.00;99.90
4701;DHT22;8724;51.272;6.554;2023-05-07T00:47:45;17.90;99.90
4701;DHT22;8724;51.272;6.554;2023-05-07T00:50:13;17.90;99.90
4701;DHT22;8724;51.272;6.554;2023-05-07T00:52:43;17.90;99.90
4701;DHT22;8724;51.272;6.554;2023-05-07T00:55:11;18.00;99.90
4701;DHT22;8724;51.272;6.554;2023-05-07T00:57:41;18.00;99.90
4701;DHT22;8724;51.272;6.554;2023-05-07T01:00:11;18.00;99.90
4701;DHT22;8724;51.272;6.554;2023-05-07T01:02:40;18.00;99.90
4701;DHT22;8724;51.272;6.554;2023-05-07T01:05:13;17.90;99.90
4701;DHT22;8724;51.272;6.554;2023-05-07T01:07:43;17.90;99.90
4701;DHT22;8724;51.272;6.554;2023-05-07T01:10:12;17.90;99.90
4701;DHT22;8724;51.272;6.554;2023-05-07T01:12:42;17.90;99.90
4701;DHT22;8724;51.272;6.554;2023-05-07T01:15:11;17.90;99.90
4701;DHT22;8724;51.272;6.554;2023-05-07T01:17:41;17.90;99.90
4701;DHT22;8724;51.272;6.554;2023-05-07T01:20:19;17.90;99.90
4701;DHT22;8724;51.272;6.554;2023-05-07T01:22:52;17.90;99.90
4701;DHT22;8724;51.272;6.554;2023-05-07T01:25:21;17.90;99.90
4701;DHT22;8724;51.272;6.554;2023-05-07T01:27:53;17.90;99.90
4701;DHT22;8724;51.272;6.554;2023-05-07T01:30:27;17.90;99.90
4701;DHT22;8724;51.272;6.554;2023-05-07T01:33:01;17.90;99.90
4701;DHT22;8724;51.272;6.554;2023-05-07T01:35:36;17.80;99.90
4701;DHT22;8724;51.272;6.554;2023-05-07T01:38:08;17.80;99.90
4701;DHT22;8724;51.272;6.554;2023-05-07T01:40:36;17.80;99.90
4701;DHT22;8724;51.272;6.554;2023-05-07T01:43:05;17.80;99.90
4701;DHT22;8724;51.272;6.554;2023-05-07T01:45:36;17.80;99.90
4701;DHT22;8724;51.272;6.554;2023-05-07T01:48:05;17.80;99.90
4701;DHT22;8724;51.272;6.554;2023-05-07T01:50:34;17.80;99.90
4701;DHT22;8724;51.272;6.554;2023-05-07T01:53:04;17.80;99.90
4701;DHT22;8724;51.272;6.554;2023-05-07T01:55:34;17.80;99.90
4701;DHT22;8724;51.272;6.554;2023-05-07T01:58:04;17.80;99.90
4701;DHT22;8724;51.272;6.554;2023-05-07T02:00:32;17.80;99.90
4701;DHT22;8724;51.272;6.554;2023-05-07T02:03:01;17.80;99.90
4701;DHT22;8724;51.272;6.554;2023-05-07T02:05:46;17.80;99.90
4701;DHT22;8724;51.272;6.554;2023-05-07T02:08:35;17.80;99.90
4701;DHT22;8724;51.272;6.554;2023-05-07T02:11:05;17.80;99.90
4701;DHT22;8724;51.272;6.554;2023-05-07T02:13:34;17.80;99.90
4701;DHT22;8724;51.272;6.554;2023-05-07T02:16:03;17.80;99.90
4701;DHT22;8724;51.272;6.554;2023-05-07T02:18:33;17.70;99.90
4701;DHT22;8724;51.272;6.554;2023-05-07T02:21:03;17.80;99.90
4701;DHT22;8724;51.272;6.554;2023-05-07T02:23:31;17.70;99.90
4701;DHT22;8724;51.272;6.554;2023-05-07T02:26:01;17.70;99.90
4701;DHT22;8724;51.272;6.554;2023-05-07T02:28:31;17.70;99.90
4701;DHT22;8724;51.272;6.554;2023-05-07T02:31:02;17.70;99.90
4701;DHT22;8724;51.272;6.554;2023-05-07T02:33:31;17.70;99.90
4701;DHT22;8724;51.272;6.554;2023-05-07T02:36:07;17.70;99.90
4701;DHT22;8724;51.272;6.554;2023-05-07T02:38:40;17.70;99.90
4701;DHT22;8724;51.272;6.554;2023-05-07T02:41:10;17.70;99.90
4701;DHT22;8724;51.272;6.554;2023-05-07T02:43:40;17.70;99.90
4701;DHT22;8724;51.272;6.554;2023-05-07T02:46:09;17.70;99.90
4701;DHT22;8724;51.272;6.554;2023-05-07T02:48:42;17.70;99.90
4701;DHT22;8724;51.272;6.554;2023-05-07T02:51:11;17.70;99.90
4701;DHT22;8724;51.272;6.554;2023-05-07T02:53:41;17.60;99.90
4701;DHT22;8724;51.272;6.554;2023-05-07T02:56:10;17.70;99.90
4701;DHT22;8724;51.272;6.554;2023-05-07T02:58:40;17.70;99.90
4701;DHT22;8724;51.272;6.554;2023-05-07T03:01:09;17.70;99.90
4701;DHT22;8724;51.272;6.554;2023-05-07T03:03:46;17.70;99.90
4701;DHT22;8724;51.272;6.554;2023-05-07T03:06:15;17.70;99.90
4701;DHT22;8724;51.272;6.554;2023-05-07T03:08:43;17.60;99.90
4701;DHT22;8724;51.272;6.554;2023-05-07T03:11:12;17.40;99.90
4701;DHT22;8724;51.272;6.554;2023-05-07T03:13:41;17.60;99.90
4701;DHT22;8724;51.272;6.554;2023-05-07T03:16:10;17.60;99.90
4701;DHT22;8724;51.272;6.554;2023-05-07T03:18:38;17.60;99.90
4701;DHT22;8724;51.272;6.554;2023-05-07T03:21:07;17.60;99.90
4701;DHT22;8724;51.272;6.554;2023-05-07T03:23:35;17.60;99.90
4701;DHT22;8724;51.272;6.554;2023-05-07T03:26:04;17.60;99.90
4701;DHT22;8724;51.272;6.554;2023-05-07T03:28:32;17.60;99.90
4701;DHT22;8724;51.272;6.554;2023-05-07T03:31:05;17.60;99.90
4701;DHT22;8724;51.272;6.554;2023-05-07T03:33:34;17.60;99.90
4701;DHT22;8724;51.272;6.554;2023-05-07T03:36:03;17.60;99.90
4701;DHT22;8724;51.272;6.554;2023-05-07T03:38:32;17.60;99.90
4701;DHT22;8724;51.272;6.554;2023-05-07T03:41:01;17.60;99.90
4701;DHT22;8724;51.272;6.554;2023-05-07T03:43:29;17.50;99.90
4701;DHT22;8724;51.272;6.554;2023-05-07T03:46:05;17.50;99.90
4701;DHT22;8724;51.272;6.554;2023-05-07T03:48:34;17.50;99.90
4701;DHT22;8724;51.272;6.554;2023-05-07T03:51:03;17.50;99.90
4701;DHT22;8724;51.272;6.554;2023-05-07T03:53:33;17.60;99.90
4701;DHT22;8724;51.272;6.554;2023-05-07T03:56:01;17.50;99.90
4701;DHT22;8724;51.272;6.554;2023-05-07T03:58:34;17.50;99.90
4701;DHT22;8724;51.272;6.554;2023-05-07T04:01:10;17.50;99.90
4701;DHT22;8724;51.272;6.554;2023-05-07T04:03:39;17.50;99.90
4701;DHT22;8724;51.272;6.554;2023-05-07T04:06:08;17.50;99.90
4701;DHT22;8724;51.272;6.554;2023-05-07T04:08:36;17.50;99.90
4701;DHT22;8724;51.272;6.554;2023-05-07T04:11:06;17.50;99.90
4701;DHT22;8724;51.272;6.554;2023-05-07T04:13:36;17.50;99.90
4701;DHT22;8724;51.272;6.554;2023-05-07T04:16:10;17.40;99.90
4701;DHT22;8724;51.272;6.554;2023-05-07T04:18:38;17.40;99.90
4701;DHT22;8724;51.272;6.554;2023-05-07T04:21:14;17.50;99.90
4701;DHT22;8724;51.272;6.554;2023-05-07T04:23:43;17.50;99.90
4701;DHT22;8724;51.272;6.554;2023-05-07T04:26:14;17.40;99.90
4701;DHT22;8724;51.272;6.554;2023-05-07T04:28:44;17.50;99.90
4701;DHT22;8724;51.272;6.554;2023-05-07T04:31:15;17.40;99.90
4701;DHT22;8724;51.272;6.554;2023-05-07T04:33:48;17.40;99.90
4701;DHT22;8724;51.272;6.554;2023-05-07T04:36:18;17.50;99.90
4701;DHT22;8724;51.272;6.554;2023-05-07T04:38:56;17.50;99.90
4701;DHT22;8724;51.272;6.554;2023-05-07T04:41:24;17.50;99.90
4701;DHT22;8724;51.272;6.554;2023-05-07T04:43:53;17.50;99.90
4701;DHT22;8724;51.272;6.554;2023-05-07T04:46:25;17.50;99.90
4701;DHT22;8724;51.272;6.554;2023-05-07T04:48:56;17.50;99.90
4701;DHT22;8724;51.272;6.554;2023-05-07T04:51:25;17.40;99.90
4701;DHT22;8724;51.272;6.554;2023-05-07T04:53:55;17.50;99.90
4701;DHT22;8724;51.272;6.554;2023-05-07T04:56:24;17.40;99.90
4701;DHT22;8724;51.272;6.554;2023-05-07T04:58:52;17.40;99.90
4701;DHT22;8724;51.272;6.554;2023-05-07T05:01:21;17.50;99.90
4701;DHT22;8724;51.272;6.554;2023-05-07T05:03:51;17.50;99.90
4701;DHT22;8724;51.272;6.554;2023-05-07T05:06:20;17.40;99.90
4701;DHT22;8724;51.272;6.554;2023-05-07T05:08:50;17.40;99.90
4701;DHT22;8724;51.272;6.554;2023-05-07T05:11:18;17.40;99.90
4701;DHT22;8724;51.272;6.554;2023-05-07T05:13:48;17.40;99.90
4701;DHT22;8724;51.272;6.554;2023-05-07T05:16:19;17.40;99.90
4701;DHT22;8724;51.272;6.554;2023-05-07T05:18:48;17.40;99.90
4701;DHT22;8724;51.272;6.554;2023-05-07T05:21:20;17.40;99.90
4701;DHT22;8724;51.272;6.554;2023-05-07T05:23:53;17.40;99.90
4701;DHT22;8724;51.272;6.554;2023-05-07T05:26:24;17.50;99.90
4701;DHT22;8724;51.272;6.554;2023-05-07T05:28:53;17.50;99.90
4701;DHT22;8724;51.272;6.554;2023-05-07T05:31:23;17.40;99.90
4701;DHT22;8724;51.272;6.554;2023-05-07T05:33:52;17.50;99.90
4701;DHT22;8724;51.272;6.554;2023-05-07T05:36:22;17.50;99.90
4701;DHT22;8724;51.272;6.554;2023-05-07T05:38:54;17.50;99.90
4701;DHT22;8724;51.272;6.554;2023-05-07T05:41:23;17.50;99.90
4701;DHT22;8724;51.272;6.554;2023-05-07T05:43:52;17.50;99.90
4701;DHT22;8724;51.272;6.554;2023-05-07T05:46:21;17.50;99.90
4701;DHT22;8724;51.272;6.554;2023-05-07T05:48:51;17.50;99.90
4701;DHT22;8724;51.272;6.554;2023-05-07T05:51:22;17.50;99.90
4701;DHT22;8724;51.272;6.554;2023-05-07T05:53:50;17.50;99.90
4701;DHT22;8724;51.272;6.554;2023-05-07T05:56:19;17.60;99.90
4701;DHT22;8724;51.272;6.554;2023-05-07T05:58:48;17.60;99.90
4701;DHT22;8724;51.272;6.554;2023-05-07T06:01:17;17.60;99.90
4701;DHT22;8724;51.272;6.554;2023-05-07T06:03:48;17.60;99.90
4701;DHT22;8724;51.272;6.554;2023-05-07T06:06:17;17.60;99.90
4701;DHT22;8724;51.272;6.554;2023-05-07T06:08:47;17.70;99.90
4701;DHT22;8724;51.272;6.554;2023-05-07T06:11:20;17.70;99.90
4701;DHT22;8724;51.272;6.554;2023-05-07T06:13:49;17.70;99.90
4701;DHT22;8724;51.272;6.554;2023-05-07T06:16:18;17.70;99.90
4701;DHT22;8724;51.272;6.554;2023-05-07T06:18:47;17.70;99.90
4701;DHT22;8724;51.272;6.554;2023-05-07T06:21:16;17.70;99.90
4701;DHT22;8724;51.272;6.554;2023-05-07T06:23:44;17.70;99.90
4701;DHT22;8724;51.272;6.554;2023-05-07T06:26:15;17.70;99.90
4701;DHT22;8724;51.272;6.554;2023-05-07T06:28:46;17.70;99.90
4701;DHT22;8724;51.272;6.554;2023-05-07T06:31:17;17.70;99.90
4701;DHT22;8724;51.272;6.554;2023-05-07T06:34:01;17.80;99.90
4701;DHT22;8724;51.272;6.554;2023-05-07T06:36:34;17.80;99.90
4701;DHT22;8724;51.272;6.554;2023-05-07T06:39:14;17.80;99.90
4701;DHT22;8724;51.272;6.554;2023-05-07T06:41:44;17.80;99.90
4701;DHT22;8724;51.272;6.554;2023-05-07T06:44:23;17.80;99.90
4701;DHT22;8724;51.272;6.554;2023-05-07T06:47:09;17.80;99.90
4701;DHT22;8724;51.272;6.554;2023-05-07T06:49:42;17.80;99.90
4701;DHT22;8724;51.272;6.554;2023-05-07T06:52:13;17.80;99.90
4701;DHT22;8724;51.272;6.554;2023-05-07T06:54:42;17.80;99.90
4701;DHT22;8724;51.272;6.554;2023-05-07T06:57:16;17.90;99.90
4701;DHT22;8724;51.272;6.554;2023-05-07T06:59:44;17.90;99.90
4701;DHT22;8724;51.272;6.554;2023-05-07T07:02:13;17.90;99.90
4701;DHT22;8724;51.272;6.554;2023-05-07T07:04:45;17.90;99.90
4701;DHT22;8724;51.272;6.554;2023-05-07T07:07:14;17.90;99.90
4701;DHT22;8724;51.272;6.554;2023-05-07T07:09:45;17.90;99.90
4701;DHT22;8724;51.272;6.554;2023-05-07T07:12:18;18.00;99.90
4701;DHT22;8724;51.272;6.554;2023-05-07T07:14:47;17.90;99.90
4701;DHT22;8724;51.272;6.554;2023-05-07T07:17:16;17.80;99.90
4701;DHT22;8724;51.272;6.554;2023-05-07T07:19:44;18.00;99.90
4701;DHT22;8724;51.272;6.554;2023-05-07T07:22:13;18.00;99.90
4701;DHT22;8724;51.272;6.554;2023-05-07T07:24:42;18.00;99.90
4701;DHT22;8724;51.272;6.554;2023-05-07T07:27:12;18.00;99.90
4701;DHT22;8724;51.272;6.554;2023-05-07T07:29:42;18.00;99.90
4701;DHT22;8724;51.272;6.554;2023-05-07T07:32:11;18.10;99.90
4701;DHT22;8724;51.272;6.554;2023-05-07T07:34:40;18.10;99.90
4701;DHT22;8724;51.272;6.554;2023-05-07T07:37:09;18.10;99.90
4701;DHT22;8724;51.272;6.554;2023-05-07T07:39:38;18.10;99.90
4701;DHT22;8724;51.272;6.554;2023-05-07T07:42:08;18.10;99.90
4701;DHT22;8724;51.272;6.554;2023-05-07T07:44:36;18.20;99.90
4701;DHT22;8724;51.272;6.554;2023-05-07T07:47:10;18.20;99.90
4701;DHT22;8724;51.272;6.554;2023-05-07T07:49:41;18.20;99.90
4701;DHT22;8724;51.272;6.554;2023-05-07T07:52:10;18.20;99.90
4701;DHT22;8724;51.272;6.554;2023-05-07T07:54:39;18.20;99.90
4701;DHT22;8724;51.272;6.554;2023-05-07T07:57:08;18.30;99.90
4701;DHT22;8724;51.272;6.554;2023-05-07T07:59:37;18.30;99.90
4701;DHT22;8724;51.272;6.554;2023-05-07T08:02:07;18.30;99.90
4701;DHT22;8724;51.272;6.554;2023-05-07T08:04:38;18.30;99.90
4701;DHT22;8724;51.272;6.554;2023-05-07T08:07:08;18.40;99.90
4701;DHT22;8724;51.272;6.554;2023-05-07T08:09:40;18.30;99.90
4701;DHT22;8724;51.272;6.554;2023-05-07T08:12:10;18.40;99.90
4701;DHT22;8724;51.272;6.554;2023-05-07T08:14:39;18.40;99.90
4701;DHT22;8724;51.272;6.554;2023-05-07T08:17:08;18.40;99.90
4701;DHT22;8724;51.272;6.554;2023-05-07T08:19:39;18.50;99.90
4701;DHT22;8724;51.272;6.554;2023-05-07T08:22:11;18.50;99.90
4701;DHT22;8724;51.272;6.554;2023-05-07T08:24:39;18.50;99.90
4701;DHT22;8724;51.272;6.554;2023-05-07T08:27:08;18.50;99.90
4701;DHT22;8724;51.272;6.554;2023-05-07T08:29:39;18.50;99.90
4701;DHT22;8724;51.272;6.554;2023-05-07T08:32:08;18.60;99.90
4701;DHT22;8724;51.272;6.554;2023-05-07T08:34:37;18.60;99.90
4701;DHT22;8724;51.272;6.554;2023-05-07T08:37:08;18.60;99.90
4701;DHT22;8724;51.272;6.554;2023-05-07T08:39:37;18.60;99.90
4701;DHT22;8724;51.272;6.554;2023-05-07T08:42:13;18.70;99.90
4701;DHT22;8724;51.272;6.554;2023-05-07T08:44:45;18.60;99.90
4701;DHT22;8724;51.272;6.554;2023-05-07T08:47:16;18.70;99.90
4701;DHT22;8724;51.272;6.554;2023-05-07T08:49:49;18.70;99.90
4701;DHT22;8724;51.272;6.554;2023-05-07T08:52:19;18.70;99.90
4701;DHT22;8724;51.272;6.554;2023-05-07T08:54:48;18.70;99.90
4701;DHT22;8724;51.272;6.554;2023-05-07T08:57:18;18.70;99.90
4701;DHT22;8724;51.272;6.554;2023-05-07T08:59:47;18.70;99.90
4701;DHT22;8724;51.272;6.554;2023-05-07T09:02:15;18.70;99.90
4701;DHT22;8724;51.272;6.554;2023-05-07T09:04:45;18.70;99.90
4701;DHT22;8724;51.272;6.554;2023-05-07T09:07:14;18.70;99.90
4701;DHT22;8724;51.272;6.554;2023-05-07T09:09:46;18.80;99.90
4701;DHT22;8724;51.272;6.554;2023-05-07T09:12:15;18.80;99.90
4701;DHT22;8724;51.272;6.554;2023-05-07T09:14:45;18.80;99.90
4701;DHT22;8724;51.272;6.554;2023-05-07T09:17:15;18.80;99.90
4701;DHT22;8724;51.272;6.554;2023-05-07T09:19:44;18.80;99.90
4701;DHT22;8724;51.272;6.554;2023-05-07T09:22:14;18.80;99.90
4701;DHT22;8724;51.272;6.554;2023-05-07T09:24:55;18.90;99.90
4701;DHT22;8724;51.272;6.554;2023-05-07T09:27:26;18.90;99.90
4701;DHT22;8724;51.272;6.554;2023-05-07T09:29:56;18.90;99.90
4701;DHT22;8724;51.272;6.554;2023-05-07T09:32:25;18.90;99.90
4701;DHT22;8724;51.272;6.554;2023-05-07T09:34:57;19.00;99.90
4701;DHT22;8724;51.272;6.554;2023-05-07T09:37:30;19.00;99.90
4701;DHT22;8724;51.272;6.554;2023-05-07T09:40:02;19.00;99.90
4701;DHT22;8724;51.272;6.554;2023-05-07T09:42:30;19.00;99.90
4701;DHT22;8724;51.272;6.554;2023-05-07T09:45:05;19.00;99.90
4701;DHT22;8724;51.272;6.554;2023-05-07T09:47:39;19.10;99.90
4701;DHT22;8724;51.272;6.554;2023-05-07T09:50:10;19.10;99.90
4701;DHT22;8724;51.272;6.554;2023-05-07T09:52:41;19.10;99.90
4701;DHT22;8724;51.272;6.554;2023-05-07T09:55:13;19.10;99.90
4701;DHT22;8724;51.272;6.554;2023-05-07T09:57:43;19.10;99.90
4701;DHT22;8724;51.272;6.554;2023-05-07T10:00:13;19.20;99.90
4701;DHT22;8724;51.272;6.554;2023-05-07T10:02:49;19.20;99.90
4701;DHT22;8724;51.272;6.554;2023-05-07T10:05:26;19.20;99.90
4701;DHT22;8724;51.272;6.554;2023-05-07T10:07:58;19.20;99.90
4701;DHT22;8724;51.272;6.554;2023-05-07T10:10:33;19.20;99.90
4701;DHT22;8724;51.272;6.554;2023-05-07T10:13:04;19.20;99.90
4701;DHT22;8724;51.272;6.554;2023-05-07T10:15:41;19.30;99.90
4701;DHT22;8724;51.272;6.554;2023-05-07T10:18:12;19.30;99.90
4701;DHT22;8724;51.272;6.554;2023-05-07T10:20:46;19.30;99.90
4701;DHT22;8724;51.272;6.554;2023-05-07T10:23:22;19.30;99.90
4701;DHT22;8724;51.272;6.554;2023-05-07T10:25:57;19.40;99.90
4701;DHT22;8724;51.272;6.554;2023-05-07T10:28:31;19.40;99.90
4701;DHT22;8724;51.272;6.554;2023-05-07T10:31:18;19.40;99.90
4701;DHT22;8724;51.272;6.554;2023-05-07T10:33:54;19.50;99.90
4701;DHT22;8724;51.272;6.554;2023-05-07T10:36:25;19.50;99.90
4701;DHT22;8724;51.272;6.554;2023-05-07T10:38:55;19.50;99.90
4701;DHT22;8724;51.272;6.554;2023-05-07T10:41:25;19.50;99.90
4701;DHT22;8724;51.272;6.554;2023-05-07T10:43:54;19.60;99.90
4701;DHT22;8724;51.272;6.554;2023-05-07T10:46:27;19.60;99.90
4701;DHT22;8724;51.272;6.554;2023-05-07T10:49:12;19.60;99.90
4701;DHT22;8724;51.272;6.554;2023-05-07T10:52:11;19.60;99.90
4701;DHT22;8724;51.272;6.554;2023-05-07T10:54:42;19.60;99.90
4701;DHT22;8724;51.272;6.554;2023-05-07T10:57:35;19.70;99.90
4701;DHT22;8724;51.272;6.554;2023-05-07T11:03:23;19.70;99.90
4701;DHT22;8724;51.272;6.554;2023-05-07T11:06:12;19.70;99.90
4701;DHT22;8724;51.272;6.554;2023-05-07T11:08:55;19.70;99.90
4701;DHT22;8724;51.272;6.554;2023-05-07T11:11:47;19.70;99.90
4701;DHT22;8724;51.272;6.554;2023-05-07T11:14:44;19.80;99.90
4701;DHT22;8724;51.272;6.554;2023-05-07T11:17:52;19.80;99.90
4701;DHT22;8724;51.272;6.554;2023-05-07T11:20:49;19.80;99.90
4701;DHT22;8724;51.272;6.554;2023-05-07T11:23:58;19.80;99.90
4701;DHT22;8724;51.272;6.554;2023-05-07T11:26:44;19.90;99.90
4701;DHT22;8724;51.272;6.554;2023-05-07T11:29:16;19.90;99.90
4701;DHT22;8724;51.272;6.554;2023-05-07T11:31:53;19.90;99.90
4701;DHT22;8724;51.272;6.554;2023-05-07T11:34:26;19.90;99.90
4701;DHT22;8724;51.272;6.554;2023-05-07T11:36:58;20.00;99.90
4701;DHT22;8724;51.272;6.554;2023-05-07T11:40:03;20.00;99.90
4701;DHT22;8724;51.272;6.554;2023-05-07T11:42:34;20.00;99.90
4701;DHT22;8724;51.272;6.554;2023-05-07T11:45:03;20.00;99.90
4701;DHT22;8724;51.272;6.554;2023-05-07T11:47:34;20.10;99.90
4701;DHT22;8724;51.272;6.554;2023-05-07T11:50:04;20.10;99.90
4701;DHT22;8724;51.272;6.554;2023-05-07T11:52:35;20.10;99.90
4701;DHT22;8724;51.272;6.554;2023-05-07T11:55:04;20.10;99.90
4701;DHT22;8724;51.272;6.554;2023-05-07T11:57:33;20.10;99.90
4701;DHT22;8724;51.272;6.554;2023-05-07T12:00:02;20.10;99.90
4701;DHT22;8724;51.272;6.554;2023-05-07T12:02:39;20.10;99.90
4701;DHT22;8724;51.272;6.554;2023-05-07T12:05:09;20.20;99.90
4701;DHT22;8724;51.272;6.554;2023-05-07T12:07:38;20.10;99.90
4701;DHT22;8724;51.272;6.554;2023-05-07T12:10:07;20.20;99.90
4701;DHT22;8724;51.272;6.554;2023-05-07T12:12:39;20.10;99.90
4701;DHT22;8724;51.272;6.554;2023-05-07T12:15:09;20.10;99.90
4701;DHT22;8724;51.272;6.554;2023-05-07T12:17:40;20.20;99.90
4701;DHT22;8724;51.272;6.554;2023-05-07T12:20:09;20.10;99.90
4701;DHT22;8724;51.272;6.554;2023-05-07T12:22:38;20.20;99.90
4701;DHT22;8724;51.272;6.554;2023-05-07T12:25:07;20.10;99.90
4701;DHT22;8724;51.272;6.554;2023-05-07T12:27:37;20.10;99.90
4701;DHT22;8724;51.272;6.554;2023-05-07T12:30:10;20.10;99.90
4701;DHT22;8724;51.272;6.554;2023-05-07T12:32:40;20.10;99.90
4701;DHT22;8724;51.272;6.554;2023-05-07T12:35:08;20.10;99.90
4701;DHT22;8724;51.272;6.554;2023-05-07T12:37:37;20.10;99.90
4701;DHT22;8724;51.272;6.554;2023-05-07T12:40:07;20.10;99.90
4701;DHT22;8724;51.272;6.554;2023-05-07T12:42:36;20.10;99.90
4701;DHT22;8724;51.272;6.554;2023-05-07T12:45:09;20.10;99.90
4701;DHT22;8724;51.272;6.554;2023-05-07T12:47:43;20.10;99.90
4701;DHT22;8724;51.272;6.554;2023-05-07T12:50:13;20.10;99.90
4701;DHT22;8724;51.272;6.554;2023-05-07T12:52:43;20.10;99.90
4701;DHT22;8724;51.272;6.554;2023-05-07T12:55:14;20.10;99.90
4701;DHT22;8724;51.272;6.554;2023-05-07T12:57:45;20.10;99.90
4701;DHT22;8724;51.272;6.554;2023-05-07T13:00:14;20.10;99.90
4701;DHT22;8724;51.272;6.554;2023-05-07T13:02:45;20.10;99.90
4701;DHT22;8724;51.272;6.554;2023-05-07T13:05:14;20.10;99.90
4701;DHT22;8724;51.272;6.554;2023-05-07T13:07:52;20.10;99.90
4701;DHT22;8724;51.272;6.554;2023-05-07T13:10:22;20.10;99.90
4701;DHT22;8724;51.272;6.554;2023-05-07T13:12:51;20.10;99.90
4701;DHT22;8724;51.272;6.554;2023-05-07T13:15:19;20.10;99.90
4701;DHT22;8724;51.272;6.554;2023-05-07T13:17:49;20.10;99.90
4701;DHT22;8724;51.272;6.554;2023-05-07T13:20:18;20.10;99.90
4701;DHT22;8724;51.272;6.554;2023-05-07T13:22:46;20.10;99.90
4701;DHT22;8724;51.272;6.554;2023-05-07T13:25:18;20.10;99.90
4701;DHT22;8724;51.272;6.554;2023-05-07T13:27:46;20.10;99.90
4701;DHT22;8724;51.272;6.554;2023-05-07T13:30:28;20.10;99.90
4701;DHT22;8724;51.272;6.554;2023-05-07T13:32:58;20.10;99.90
4701;DHT22;8724;51.272;6.554;2023-05-07T13:35:27;20.10;99.90
4701;DHT22;8724;51.272;6.554;2023-05-07T13:37:55;20.10;99.90
4701;DHT22;8724;51.272;6.554;2023-05-07T13:40:24;20.10;99.90
4701;DHT22;8724;51.272;6.554;2023-05-07T13:42:53;20.00;99.90
4701;DHT22;8724;51.272;6.554;2023-05-07T13:45:22;20.10;99.90
4701;DHT22;8724;51.272;6.554;2023-05-07T13:47:52;20.00;99.90
4701;DHT22;8724;51.272;6.554;2023-05-07T13:50:23;20.10;99.90
4701;DHT22;8724;51.272;6.554;2023-05-07T13:52:51;20.00;99.90
4701;DHT22;8724;51.272;6.554;2023-05-07T13:55:20;20.00;99.90
4701;DHT22;8724;51.272;6.554;2023-05-07T13:57:55;20.00;99.90
4701;DHT22;8724;51.272;6.554;2023-05-07T14:00:24;20.00;99.90
4701;DHT22;8724;51.272;6.554;2023-05-07T14:02:53;20.00;99.90
4701;DHT22;8724;51.272;6.554;2023-05-07T14:05:23;20.00;99.90
4701;DHT22;8724;51.272;6.554;2023-05-07T14:07:52;19.90;99.90
4701;DHT22;8724;51.272;6.554;2023-05-07T14:10:20;19.90;99.90
4701;DHT22;8724;51.272;6.554;2023-05-07T14:12:49;19.90;99.90
4701;DHT22;8724;51.272;6.554;2023-05-07T14:15:17;19.90;99.90
4701;DHT22;8724;51.272;6.554;2023-05-07T14:17:46;19.90;99.90
4701;DHT22;8724;51.272;6.554;2023-05-07T14:20:15;19.90;99.90
4701;DHT22;8724;51.272;6.554;2023-05-07T14:22:44;19.90;99.90
4701;DHT22;8724;51.272;6.554;2023-05-07T14:25:13;19.90;99.90
4701;DHT22;8724;51.272;6.554;2023-05-07T14:27:48;19.90;99.90
4701;DHT22;8724;51.272;6.554;2023-05-07T14:30:17;19.90;99.90
4701;DHT22;8724;51.272;6.554;2023-05-07T14:32:46;19.90;99.90
4701;DHT22;8724;51.272;6.554;2023-05-07T14:35:14;19.90;99.90
4701;DHT22;8724;51.272;6.554;2023-05-07T14:37:44;20.00;99.90
4701;DHT22;8724;51.272;6.554;2023-05-07T14:40:13;19.90;99.90
4701;DHT22;8724;51.272;6.554;2023-05-07T14:42:42;19.90;99.90
4701;DHT22;8724;51.272;6.554;2023-05-07T14:45:11;19.90;99.90
4701;DHT22;8724;51.272;6.554;2023-05-07T14:47:40;19.90;99.90
4701;DHT22;8724;51.272;6.554;2023-05-07T14:50:09;20.00;99.90
4701;DHT22;8724;51.272;6.554;2023-05-07T14:52:37;20.00;99.90
4701;DHT22;8724;51.272;6.554;2023-05-07T14:55:08;19.90;99.90
4701;DHT22;8724;51.272;6.554;2023-05-07T14:57:37;19.90;99.90
4701;DHT22;8724;51.272;6.554;2023-05-07T15:00:07;19.90;99.90
4701;DHT22;8724;51.272;6.554;2023-05-07T15:02:36;19.90;99.90
4701;DHT22;8724;51.272;6.554;2023-05-07T15:05:06;19.90;99.90
4701;DHT22;8724;51.272;6.554;2023-05-07T15:07:34;19.90;99.90
4701;DHT22;8724;51.272;6.554;2023-05-07T15:10:03;19.90;99.90
4701;DHT22;8724;51.272;6.554;2023-05-07T15:12:33;19.90;99.90
4701;DHT22;8724;51.272;6.554;2023-05-07T15:15:02;19.70;99.90
4701;DHT22;8724;51.272;6.554;2023-05-07T15:17:30;19.90;99.90
4701;DHT22;8724;51.272;6.554;2023-05-07T15:19:58;19.90;99.90
4701;DHT22;8724;51.272;6.554;2023-05-07T15:22:28;19.90;99.90
4701;DHT22;8724;51.272;6.554;2023-05-07T15:24:56;19.80;99.90
4701;DHT22;8724;51.272;6.554;2023-05-07T15:27:26;19.80;99.90
4701;DHT22;8724;51.272;6.554;2023-05-07T15:29:56;19.80;99.90
4701;DHT22;8724;51.272;6.554;2023-05-07T15:32:24;19.80;99.90
4701;DHT22;8724;51.272;6.554;2023-05-07T15:34:52;19.80;99.90
4701;DHT22;8724;51.272;6.554;2023-05-07T15:37:21;19.80;99.90
4701;DHT22;8724;51.272;6.554;2023-05-07T15:39:49;19.80;99.90
4701;DHT22;8724;51.272;6.554;2023-05-07T15:42:17;19.70;99.90
4701;DHT22;8724;51.272;6.554;2023-05-07T15:44:47;19.80;99.90
4701;DHT22;8724;51.272;6.554;2023-05-07T15:47:17;19.80;99.90
4701;DHT22;8724;51.272;6.554;2023-05-07T15:49:45;19.70;99.90
4701;DHT22;8724;51.272;6.554;2023-05-07T15:52:16;19.70;99.90
4701;DHT22;8724;51.272;6.554;2023-05-07T15:54:45;19.70;99.90
4701;DHT22;8724;51.272;6.554;2023-05-07T15:57:13;19.70;99.90
4701;DHT22;8724;51.272;6.554;2023-05-07T15:59:41;19.80;99.90
4701;DHT22;8724;51.272;6.554;2023-05-07T16:02:10;19.80;99.90
4701;DHT22;8724;51.272;6.554;2023-05-07T16:04:39;19.80;99.90
4701;DHT22;8724;51.272;6.554;2023-05-07T16:07:08;19.80;99.90
4701;DHT22;8724;51.272;6.554;2023-05-07T16:09:38;19.80;99.90
4701;DHT22;8724;51.272;6.554;2023-05-07T16:12:07;19.70;99.90
4701;DHT22;8724;51.272;6.554;2023-05-07T16:14:35;19.70;99.90
4701;DHT22;8724;51.272;6.554;2023-05-07T16:17:04;19.80;99.90
4701;DHT22;8724;51.272;6.554;2023-05-07T16:19:32;19.80;99.90
4701;DHT22;8724;51.272;6.554;2023-05-07T16:22:02;19.80;99.90
4701;DHT22;8724;51.272;6.554;2023-05-07T16:24:30;19.80;99.90
4701;DHT22;8724;51.272;6.554;2023-05-07T16:26:59;19.80;99.90
4701;DHT22;8724;51.272;6.554;2023-05-07T16:29:28;19.80;99.90